createdAt,value
2017-11-13T00:00:59.702Z,5.10
2017-11-13T00:03:26.390Z,5.83
2017-11-13T00:05:52.335Z,5.73
2017-11-13T00:08:18.313Z,5.27
2017-11-13T00:10:44.270Z,4.17
2017-11-13T00:13:11.018Z,3.90
2017-11-13T00:15:37.721Z,3.20
2017-11-13T00:18:03.682Z,3.67
2017-11-13T00:20:29.643Z,3.67
2017-11-13T00:22:55.627Z,4.00
2017-11-13T00:25:21.594Z,3.30
2017-11-13T00:27:47.566Z,2.63
2017-11-13T00:30:13.548Z,2.63
2017-11-13T00:32:39.489Z,2.60
2017-11-13T00:35:05.427Z,3.03
2017-11-13T00:37:31.411Z,3.20
2017-11-13T00:39:57.346Z,2.63
2017-11-13T00:42:23.286Z,2.87
2017-11-13T00:44:49.263Z,2.63
2017-11-13T00:47:15.206Z,2.37
2017-11-13T00:49:41.187Z,2.63
2017-11-13T00:52:07.127Z,2.33
2017-11-13T00:54:33.107Z,2.83
2017-11-13T00:56:59.073Z,3.23
2017-11-13T00:59:25.785Z,3.13
2017-11-13T01:01:51.739Z,3.07
2017-11-13T01:04:17.678Z,3.50
2017-11-13T01:06:43.655Z,3.70
2017-11-13T01:09:09.603Z,2.97
2017-11-13T01:11:35.542Z,3.03
2017-11-13T01:14:01.554Z,3.40
2017-11-13T01:16:27.493Z,3.10
2017-11-13T01:18:53.462Z,3.23
2017-11-13T01:21:19.406Z,3.00
2017-11-13T01:23:46.143Z,3.47
2017-11-13T01:26:12.090Z,3.80
2017-11-13T01:28:38.034Z,3.30
2017-11-13T01:31:04.011Z,4.13
2017-11-13T01:33:30.728Z,3.27
2017-11-13T01:35:56.698Z,3.23
2017-11-13T01:38:22.643Z,4.10
2017-11-13T01:40:48.606Z,4.93
2017-11-13T01:43:14.554Z,4.30
2017-11-13T01:45:40.521Z,5.00
2017-11-13T01:48:06.471Z,5.07
2017-11-13T01:50:33.187Z,5.07
2017-11-13T01:52:59.153Z,5.60
2017-11-13T01:55:25.863Z,5.83
2017-11-13T01:57:51.829Z,5.93
2017-11-13T02:00:17.773Z,6.70
2017-11-13T02:02:44.498Z,6.83
2017-11-13T02:05:10.434Z,6.80
2017-11-13T02:07:36.406Z,8.20
2017-11-13T02:10:03.118Z,6.90
2017-11-13T02:12:29.086Z,6.90
2017-11-13T02:14:55.754Z,7.37
2017-11-13T02:17:21.725Z,6.10
2017-11-13T02:19:47.659Z,6.97
2017-11-13T02:22:13.627Z,6.60
2017-11-13T02:24:39.560Z,6.67
2017-11-13T02:27:05.546Z,7.10
2017-11-13T02:29:31.483Z,7.70
2017-11-13T02:31:57.414Z,8.03
2017-11-13T02:34:23.374Z,7.40
2017-11-13T02:36:49.311Z,7.60
2017-11-13T02:39:15.284Z,7.97
2017-11-13T02:41:41.960Z,7.23
2017-11-13T02:44:07.931Z,7.67
2017-11-13T02:46:33.887Z,7.50
2017-11-13T02:48:59.888Z,7.00
2017-11-13T02:51:25.859Z,6.93
2017-11-13T02:53:51.814Z,7.73
2017-11-13T02:56:18.531Z,7.70
2017-11-13T02:58:44.483Z,8.90
2017-11-13T03:01:10.485Z,6.53
2017-11-13T03:03:36.427Z,7.90
2017-11-13T03:06:02.388Z,8.70
2017-11-13T03:08:29.870Z,8.07
2017-11-13T03:10:55.822Z,8.33
2017-11-13T03:13:22.519Z,9.27
2017-11-13T03:15:48.508Z,8.37
2017-11-13T03:18:15.202Z,9.23
2017-11-13T03:20:41.199Z,8.83
2017-11-13T03:23:07.887Z,9.63
2017-11-13T03:25:33.831Z,9.50
2017-11-13T03:27:59.828Z,10.47
2017-11-13T03:30:26.561Z,9.50
2017-11-13T03:32:52.543Z,9.87
2017-11-13T03:35:18.505Z,9.23
2017-11-13T03:37:44.465Z,10.50
2017-11-13T03:40:11.192Z,9.10
2017-11-13T03:42:37.144Z,9.47
2017-11-13T03:45:03.106Z,11.40
2017-11-13T03:47:29.118Z,9.90
2017-11-13T03:49:55.080Z,11.07
2017-11-13T03:52:21.767Z,10.50
2017-11-13T03:54:47.752Z,10.10
2017-11-13T03:57:13.753Z,11.30
2017-11-13T03:59:39.752Z,10.80
2017-11-13T04:02:05.716Z,10.27
2017-11-13T04:04:31.711Z,9.87
2017-11-13T04:06:58.449Z,10.13
2017-11-13T04:09:24.399Z,10.10
2017-11-13T04:11:51.103Z,10.63
2017-11-13T04:14:17.097Z,10.83
2017-11-13T04:16:43.055Z,12.10
2017-11-13T04:19:09.055Z,11.20
2017-11-13T04:21:35.743Z,11.70
2017-11-13T04:24:01.704Z,10.80
2017-11-13T04:26:27.692Z,10.90
2017-11-13T04:28:53.647Z,11.60
2017-11-13T04:31:19.678Z,11.37
2017-11-13T04:33:45.652Z,12.17
2017-11-13T04:36:11.612Z,12.50
2017-11-13T04:38:38.339Z,11.77
2017-11-13T04:41:04.301Z,12.10
2017-11-13T04:43:30.296Z,11.67
2017-11-13T04:45:56.254Z,12.70
2017-11-13T04:48:22.205Z,12.50
2017-11-13T04:50:48.208Z,12.40
2017-11-13T04:53:14.193Z,12.40
2017-11-13T04:55:40.934Z,11.30
2017-11-13T04:58:07.636Z,12.00
2017-11-13T05:00:33.589Z,12.83
2017-11-13T05:02:59.575Z,12.83
2017-11-13T05:05:26.268Z,11.93
2017-11-13T05:07:52.259Z,13.27
2017-11-13T05:10:18.947Z,12.40
2017-11-13T05:12:44.899Z,12.57
2017-11-13T05:15:10.879Z,13.40
2017-11-13T05:17:37.624Z,11.67
2017-11-13T05:20:04.330Z,12.07
2017-11-13T05:22:30.315Z,13.10
2017-11-13T05:24:57.063Z,13.00
2017-11-13T05:27:23.016Z,12.80
2017-11-13T05:29:49.743Z,13.63
2017-11-13T05:32:15.731Z,14.30
2017-11-13T05:34:41.730Z,13.60
2017-11-13T05:37:08.483Z,14.23
2017-11-13T05:39:35.177Z,13.83
2017-11-13T05:42:01.176Z,13.90
2017-11-13T05:44:27.908Z,14.20
2017-11-13T05:46:53.858Z,12.53
2017-11-13T05:49:20.655Z,14.80
2017-11-13T05:51:46.607Z,12.97
2017-11-13T05:54:12.617Z,15.13
2017-11-13T05:56:38.612Z,15.27
2017-11-13T05:59:06.847Z,15.40
2017-11-13T06:01:33.199Z,15.53
2017-11-13T06:03:59.148Z,16.50
2017-11-13T06:06:25.127Z,15.47
2017-11-13T06:08:51.891Z,15.50
2017-11-13T06:11:18.738Z,16.00
2017-11-13T06:13:45.521Z,19.80
2017-11-13T06:16:11.492Z,16.13
2017-11-13T06:18:37.448Z,18.23
2017-11-13T06:21:03.448Z,17.27
2017-11-13T06:23:29.447Z,18.57
2017-11-13T06:25:56.179Z,19.23
2017-11-13T06:28:22.136Z,18.53
2017-11-13T06:30:48.870Z,19.83
2017-11-13T06:33:15.572Z,18.43
2017-11-13T06:35:41.588Z,18.03
2017-11-13T06:38:07.543Z,21.27
2017-11-13T06:40:33.528Z,21.73
2017-11-13T06:42:59.519Z,23.00
2017-11-13T06:45:25.475Z,21.07
2017-11-13T06:47:51.480Z,20.60
2017-11-13T06:50:17.431Z,21.20
2017-11-13T06:52:43.387Z,21.47
2017-11-13T06:55:09.376Z,20.43
2017-11-13T06:57:35.323Z,19.43
2017-11-13T07:00:01.324Z,19.30
2017-11-13T07:02:28.051Z,20.13
2017-11-13T07:04:54.036Z,19.43
2017-11-13T07:07:19.991Z,21.60
2017-11-13T07:09:45.978Z,19.40
2017-11-13T07:12:12.676Z,21.27
2017-11-13T07:14:38.663Z,22.13
2017-11-13T07:17:05.359Z,21.80
2017-11-13T07:19:31.355Z,20.17
2017-11-13T07:21:58.059Z,20.07
2017-11-13T07:24:24.043Z,20.53
2017-11-13T07:26:50.739Z,20.43
2017-11-13T07:29:16.750Z,19.27
2017-11-13T07:31:42.767Z,17.43
2017-11-13T07:34:09.468Z,18.70
2017-11-13T07:36:35.468Z,18.77
2017-11-13T07:39:02.173Z,18.57
2017-11-13T07:41:28.160Z,20.33
2017-11-13T07:43:54.895Z,19.17
2017-11-13T07:46:21.600Z,20.67
2017-11-13T07:48:47.575Z,19.53
2017-11-13T07:51:13.568Z,18.47
2017-11-13T07:53:39.524Z,20.53
2017-11-13T07:56:05.520Z,20.50
2017-11-13T07:58:31.484Z,19.90
2017-11-13T08:00:57.448Z,21.60
2017-11-13T08:03:23.443Z,21.27
2017-11-13T08:05:49.400Z,20.97
2017-11-13T08:08:15.386Z,20.67
2017-11-13T08:10:42.079Z,19.90
2017-11-13T08:13:08.087Z,20.00
2017-11-13T08:15:34.034Z,21.00
2017-11-13T08:18:00.009Z,19.07
2017-11-13T08:20:25.996Z,19.70
2017-11-13T08:22:51.987Z,21.07
2017-11-13T08:25:17.967Z,22.27
2017-11-13T08:27:43.960Z,20.93
2017-11-13T08:30:09.972Z,21.83
2017-11-13T08:32:35.927Z,22.17
2017-11-13T08:35:01.876Z,20.20
2017-11-13T08:37:27.896Z,20.37
2017-11-13T08:39:53.858Z,18.80
2017-11-13T08:42:20.593Z,21.60
2017-11-13T08:44:46.544Z,20.87
2017-11-13T08:47:13.244Z,20.20
2017-11-13T08:49:39.235Z,20.17
2017-11-13T08:52:05.944Z,21.73
2017-11-13T08:54:31.936Z,24.27
2017-11-13T08:56:58.663Z,21.57
2017-11-13T08:59:24.612Z,21.20
2017-11-13T09:01:51.371Z,19.87
2017-11-13T09:04:18.102Z,19.90
2017-11-13T09:06:44.799Z,18.57
2017-11-13T09:09:10.779Z,21.20
2017-11-13T09:11:36.767Z,17.50
2017-11-13T09:14:02.724Z,16.90
2017-11-13T09:16:28.756Z,12.10
2017-11-13T09:18:54.738Z,11.30
2017-11-13T09:21:20.688Z,9.80
2017-11-13T09:23:47.432Z,8.10
2017-11-13T09:26:13.388Z,7.60
2017-11-13T09:28:40.112Z,7.13
2017-11-13T09:31:06.100Z,7.90
2017-11-13T09:33:32.048Z,6.30
2017-11-13T09:35:58.023Z,6.97
2017-11-13T09:38:24.749Z,7.90
2017-11-13T09:40:50.703Z,7.57
2017-11-13T09:43:16.691Z,8.23
2017-11-13T09:45:42.639Z,8.63
2017-11-13T09:48:08.632Z,8.50
2017-11-13T09:50:34.599Z,8.77
2017-11-13T09:53:00.539Z,8.30
2017-11-13T09:55:26.490Z,8.07
2017-11-13T09:57:52.484Z,8.67
2017-11-13T10:00:18.477Z,8.20
2017-11-13T10:02:44.435Z,9.00
2017-11-13T10:05:11.170Z,10.40
2017-11-13T10:07:37.154Z,11.23
2017-11-13T10:10:03.135Z,9.77
2017-11-13T10:12:29.115Z,11.87
2017-11-13T10:14:55.811Z,13.00
2017-11-13T10:17:21.799Z,13.40
2017-11-13T10:19:47.860Z,13.43
2017-11-13T10:22:13.812Z,13.70
2017-11-13T10:24:39.780Z,15.00
2017-11-13T10:27:05.790Z,15.33
2017-11-13T10:29:31.750Z,14.57
2017-11-13T10:31:57.778Z,15.13
2017-11-13T10:34:23.768Z,14.87
2017-11-13T10:36:50.496Z,16.80
2017-11-13T10:39:17.202Z,15.73
2017-11-13T10:41:43.164Z,16.10
2017-11-13T10:44:09.147Z,14.90
2017-11-13T10:46:35.101Z,15.43
2017-11-13T10:49:01.091Z,15.90
2017-11-13T10:51:27.792Z,16.10
2017-11-13T10:53:53.743Z,14.90
2017-11-13T10:56:19.742Z,15.77
2017-11-13T10:58:45.755Z,14.17
2017-11-13T11:01:12.452Z,13.33
2017-11-13T11:03:38.418Z,14.60
2017-11-13T11:06:04.428Z,13.80
2017-11-13T11:08:30.427Z,13.53
2017-11-13T11:10:57.127Z,15.27
2017-11-13T11:13:23.127Z,13.30
2017-11-13T11:15:50.887Z,12.80
2017-11-13T11:18:18.503Z,13.67
2017-11-13T11:20:50.660Z,11.80
2017-11-13T11:23:20.571Z,13.10
2017-11-13T11:25:50.386Z,11.83
2017-11-13T11:28:16.340Z,11.90
2017-11-13T11:30:43.075Z,10.40
2017-11-13T11:33:10.085Z,10.97
2017-11-13T11:35:36.062Z,12.40
2017-11-13T11:38:02.795Z,11.83
2017-11-13T11:40:29.597Z,12.50
2017-11-13T11:42:55.575Z,12.50
2017-11-13T11:45:29.670Z,12.60
2017-11-13T11:47:55.704Z,12.20
2017-11-13T11:50:21.656Z,12.13
2017-11-13T11:52:47.612Z,10.90
2017-11-13T11:55:23.579Z,10.40
2017-11-13T11:57:49.540Z,11.00
2017-11-13T12:00:15.532Z,10.70
2017-11-13T12:02:41.492Z,12.33
2017-11-13T12:05:07.476Z,11.57
2017-11-13T12:07:34.164Z,11.60
2017-11-13T12:10:00.143Z,11.00
2017-11-13T12:12:26.120Z,14.37
2017-11-13T12:14:52.064Z,11.93
2017-11-13T12:17:18.053Z,11.90
2017-11-13T12:19:44.746Z,11.30
2017-11-13T12:22:10.761Z,10.93
2017-11-13T12:24:37.444Z,12.70
2017-11-13T12:27:03.396Z,10.13
2017-11-13T12:29:29.424Z,11.80
2017-11-13T12:31:55.371Z,10.93
2017-11-13T12:34:21.334Z,8.63
2017-11-13T12:36:47.318Z,9.37
2017-11-13T12:39:13.277Z,9.37
2017-11-13T12:41:39.248Z,10.20
2017-11-13T12:44:05.975Z,9.63
2017-11-13T12:46:31.935Z,10.20
2017-11-13T12:48:58.670Z,10.23
2017-11-13T12:51:26.120Z,8.23
2017-11-13T12:53:52.112Z,8.60
2017-11-13T12:56:18.838Z,8.10
2017-11-13T12:58:44.801Z,8.47
2017-11-13T13:01:11.521Z,8.13
2017-11-13T13:03:37.479Z,7.17
2017-11-13T13:06:04.205Z,10.10
2017-11-13T13:08:30.204Z,8.53
2017-11-13T13:10:56.167Z,7.70
2017-11-13T13:13:22.156Z,7.03
2017-11-13T13:15:48.103Z,7.07
2017-11-13T13:18:14.087Z,8.55
2017-11-13T13:20:40.068Z,7.43
2017-11-13T13:23:06.097Z,8.37
2017-11-13T13:25:32.074Z,7.73
2017-11-13T13:27:58.044Z,7.83
2017-11-13T13:30:24.032Z,6.93
2017-11-13T13:32:50.011Z,8.00
2017-11-13T13:35:16.003Z,7.20
2017-11-13T13:37:41.976Z,7.40
2017-11-13T13:40:07.984Z,7.13
2017-11-13T13:42:33.952Z,7.40
2017-11-13T13:44:59.943Z,7.50
2017-11-13T13:47:25.924Z,8.53
2017-11-13T13:49:51.878Z,7.70
2017-11-13T13:52:18.616Z,6.30
2017-11-13T13:54:44.564Z,6.77
2017-11-13T13:57:12.039Z,7.23
2017-11-13T13:59:38.779Z,5.97
2017-11-13T14:02:04.772Z,8.03
2017-11-13T14:04:30.771Z,7.57
2017-11-13T14:06:57.463Z,6.83
2017-11-13T14:09:23.419Z,8.80
2017-11-13T14:11:49.411Z,9.27
2017-11-13T14:14:15.403Z,8.23
2017-11-13T14:16:41.395Z,7.27
2017-11-13T14:19:07.385Z,8.70
2017-11-13T14:21:33.335Z,6.83
2017-11-13T14:24:00.083Z,7.67
2017-11-13T14:26:26.779Z,7.90
2017-11-13T14:28:52.736Z,8.47
2017-11-13T14:31:18.772Z,7.17
2017-11-13T14:33:44.716Z,6.40
2017-11-13T14:36:10.679Z,8.00
2017-11-13T14:38:37.423Z,7.20
2017-11-13T14:41:04.116Z,7.13
2017-11-13T14:43:30.068Z,6.40
2017-11-13T14:45:56.061Z,7.23
2017-11-13T14:48:22.023Z,7.93
2017-11-13T14:50:48.015Z,5.90
2017-11-13T14:53:13.971Z,7.63
2017-11-13T14:55:40.712Z,6.17
2017-11-13T14:58:07.450Z,6.80
2017-11-13T15:00:33.404Z,7.13
2017-11-13T15:03:00.140Z,6.77
2017-11-13T15:05:26.142Z,6.30
2017-11-13T15:07:52.095Z,7.00
2017-11-13T15:10:18.048Z,7.30
2017-11-13T15:12:44.031Z,6.00
2017-11-13T15:15:09.995Z,6.30
2017-11-13T15:17:35.986Z,6.17
2017-11-13T15:20:01.952Z,6.00
2017-11-13T15:22:27.911Z,7.03
2017-11-13T15:24:53.910Z,7.07
2017-11-13T15:27:19.866Z,6.93
2017-11-13T15:29:45.872Z,7.20
2017-11-13T15:32:11.904Z,8.10
2017-11-13T15:34:38.603Z,7.40
2017-11-13T15:37:04.570Z,6.83
2017-11-13T15:39:30.556Z,7.07
2017-11-13T15:41:56.507Z,8.10
2017-11-13T15:44:22.496Z,8.67
2017-11-13T15:46:49.187Z,7.47
2017-11-13T15:49:15.188Z,7.93
2017-11-13T15:51:41.912Z,7.37
2017-11-13T15:54:07.892Z,7.50
2017-11-13T15:56:33.899Z,7.10
2017-11-13T15:59:00.627Z,8.23
2017-11-13T16:01:26.651Z,9.20
2017-11-13T16:03:52.599Z,8.03
2017-11-13T16:06:18.551Z,9.27
2017-11-13T16:08:45.286Z,8.20
2017-11-13T16:11:11.256Z,8.10
2017-11-13T16:13:37.983Z,8.87
2017-11-13T16:16:03.979Z,8.70
2017-11-13T16:18:29.922Z,7.67
2017-11-13T16:20:55.875Z,9.70
2017-11-13T16:23:21.862Z,8.70
2017-11-13T16:25:47.855Z,8.73
2017-11-13T16:28:13.808Z,10.10
2017-11-13T16:30:39.809Z,11.00
2017-11-13T16:33:05.760Z,13.13
2017-11-13T16:35:31.765Z,9.53
2017-11-13T16:37:57.710Z,10.87
2017-11-13T16:40:23.675Z,10.03
2017-11-13T16:42:49.706Z,10.37
2017-11-13T16:45:16.437Z,10.57
2017-11-13T16:47:42.419Z,10.27
2017-11-13T16:50:09.189Z,10.13
2017-11-13T16:52:35.139Z,10.43
2017-11-13T16:55:01.116Z,10.60
2017-11-13T16:57:27.177Z,9.70
2017-11-13T16:59:53.178Z,11.80
2017-11-13T17:02:19.171Z,11.90
2017-11-13T17:04:45.947Z,9.90
2017-11-13T17:07:11.939Z,9.47
2017-11-13T17:09:37.944Z,10.57
2017-11-13T17:12:03.899Z,9.93
2017-11-13T17:14:29.915Z,11.10
2017-11-13T17:16:55.875Z,11.67
2017-11-13T17:19:21.872Z,12.33
2017-11-13T17:21:47.833Z,11.43
2017-11-13T17:24:13.778Z,13.00
2017-11-13T17:26:39.810Z,13.47
2017-11-13T17:29:05.783Z,13.17
2017-11-13T17:31:32.475Z,12.13
2017-11-13T17:33:58.475Z,12.53
2017-11-13T17:36:24.476Z,12.47
2017-11-13T17:38:50.515Z,12.00
2017-11-13T17:41:16.519Z,12.30
2017-11-13T17:43:42.471Z,12.70
2017-11-13T17:46:08.467Z,13.67
2017-11-13T17:48:34.467Z,12.83
2017-11-13T17:51:01.216Z,11.93
2017-11-13T17:53:27.168Z,13.37
2017-11-13T17:55:53.901Z,14.83
2017-11-13T17:58:19.939Z,12.83
2017-11-13T18:00:45.895Z,14.93
2017-11-13T18:03:12.626Z,13.30
2017-11-13T18:05:38.635Z,14.37
2017-11-13T18:08:04.596Z,13.30
2017-11-13T18:10:31.288Z,12.10
2017-11-13T18:12:57.266Z,13.50
2017-11-13T18:15:23.275Z,13.20
2017-11-13T18:17:49.220Z,12.30
2017-11-13T18:20:15.188Z,13.97
2017-11-13T18:22:41.179Z,14.13
2017-11-13T18:25:07.158Z,13.80
2017-11-13T18:27:33.109Z,14.40
2017-11-13T18:29:59.122Z,13.60
2017-11-13T18:32:25.082Z,16.33
2017-11-13T18:34:51.787Z,14.63
2017-11-13T18:37:17.775Z,12.60
2017-11-13T18:39:43.732Z,14.03
2017-11-13T18:42:10.470Z,15.53
2017-11-13T18:44:37.167Z,13.30
2017-11-13T18:47:03.164Z,16.53
2017-11-13T18:49:29.947Z,14.50
2017-11-13T18:51:55.931Z,12.57
2017-11-13T18:54:23.359Z,15.40
2017-11-13T18:56:49.343Z,14.23
2017-11-13T18:59:16.091Z,13.57
2017-11-13T19:01:42.895Z,12.40
2017-11-13T19:04:08.864Z,13.47
2017-11-13T19:06:34.864Z,12.33
2017-11-13T19:09:00.818Z,12.07
2017-11-13T19:11:26.792Z,10.77
2017-11-13T19:13:52.779Z,12.13
2017-11-13T19:16:18.739Z,12.40
2017-11-13T19:18:44.734Z,12.13
2017-11-13T19:21:10.699Z,11.70
2017-11-13T19:23:36.714Z,11.80
2017-11-13T19:26:02.671Z,12.30
2017-11-13T19:28:28.619Z,11.27
2017-11-13T19:30:54.633Z,11.13
2017-11-13T19:33:20.614Z,11.80
2017-11-13T19:35:48.100Z,11.93
2017-11-13T19:38:14.087Z,11.87
2017-11-13T19:40:40.106Z,11.37
2017-11-13T19:43:06.158Z,10.50
2017-11-13T19:45:32.115Z,12.50
2017-11-13T19:47:58.114Z,11.00
2017-11-13T19:50:24.079Z,10.07
2017-11-13T19:52:50.042Z,10.77
2017-11-13T19:55:16.775Z,9.97
2017-11-13T19:57:42.727Z,10.50
2017-11-13T20:00:08.735Z,10.10
2017-11-13T20:02:34.719Z,11.07
2017-11-13T20:05:01.424Z,9.73
2017-11-13T20:07:27.416Z,9.63
2017-11-13T20:09:54.130Z,9.47
2017-11-13T20:12:20.090Z,9.90
2017-11-13T20:14:46.075Z,9.60
2017-11-13T20:17:12.057Z,9.17
2017-11-13T20:19:38.067Z,11.60
2017-11-13T20:22:04.023Z,9.93
2017-11-13T20:24:29.974Z,10.47
2017-11-13T20:26:56.695Z,9.77
2017-11-13T20:29:22.650Z,10.37
2017-11-13T20:31:48.639Z,10.70
2017-11-13T20:34:14.634Z,11.57
2017-11-13T20:36:40.612Z,11.50
2017-11-13T20:39:06.567Z,10.70
2017-11-13T20:41:32.567Z,10.80
2017-11-13T20:43:58.586Z,10.87
2017-11-13T20:46:25.327Z,11.83
2017-11-13T20:48:51.341Z,10.53
2017-11-13T20:51:17.335Z,11.60
2017-11-13T20:53:43.341Z,11.73
2017-11-13T20:56:09.327Z,11.30
2017-11-13T20:58:35.359Z,11.50
2017-11-13T21:01:01.311Z,13.80
2017-11-13T21:03:27.279Z,11.77
2017-11-13T21:05:53.988Z,14.10
2017-11-13T21:08:19.965Z,13.60
2017-11-13T21:10:45.921Z,13.23
2017-11-13T21:13:12.643Z,13.57
2017-11-13T21:15:38.611Z,12.10
2017-11-13T21:18:05.340Z,13.60
2017-11-13T21:20:31.296Z,13.47
2017-11-13T21:22:58.027Z,14.30
2017-11-13T21:25:23.999Z,13.80
2017-11-13T21:27:49.959Z,14.70
2017-11-13T21:30:15.932Z,13.77
2017-11-13T21:32:41.891Z,14.70
2017-11-13T21:35:08.675Z,13.63
2017-11-13T21:37:34.624Z,14.33
2017-11-13T21:40:00.580Z,15.80
2017-11-13T21:42:26.550Z,14.10
2017-11-13T21:44:53.280Z,14.47
2017-11-13T21:47:19.280Z,13.97
2017-11-13T21:49:45.243Z,14.83
2017-11-13T21:52:11.207Z,13.50
2017-11-13T21:54:37.951Z,16.33
2017-11-13T21:57:03.925Z,15.00
2017-11-13T21:59:29.934Z,14.50
2017-11-13T22:01:56.662Z,16.20
2017-11-13T22:04:22.631Z,15.67
2017-11-13T22:06:49.343Z,13.90
2017-11-13T22:09:15.344Z,13.10
2017-11-13T22:11:41.316Z,14.60
2017-11-13T22:14:07.305Z,16.17
2017-11-13T22:16:33.455Z,15.97
2017-11-13T22:18:59.406Z,16.37
2017-11-13T22:21:25.415Z,14.63
2017-11-13T22:23:51.384Z,15.70
2017-11-13T22:26:17.334Z,14.80
2017-11-13T22:28:43.339Z,15.20
2017-11-13T22:31:09.311Z,15.23
2017-11-13T22:33:35.295Z,13.83
2017-11-13T22:36:01.279Z,15.23
2017-11-13T22:38:27.281Z,15.97
2017-11-13T22:40:53.243Z,14.93
2017-11-13T22:43:19.231Z,14.43
2017-11-13T22:45:45.207Z,15.07
2017-11-13T22:48:11.233Z,15.93
2017-11-13T22:50:37.192Z,15.30
2017-11-13T22:53:03.152Z,13.57
2017-11-13T22:55:29.887Z,16.47
2017-11-13T22:57:55.879Z,14.23
2017-11-13T23:00:21.874Z,13.40
2017-11-13T23:02:48.766Z,14.97
2017-11-13T23:05:15.447Z,13.40
2017-11-13T23:07:41.435Z,15.17
2017-11-13T23:10:08.144Z,17.90
2017-11-13T23:12:34.123Z,16.87
2017-11-13T23:15:00.806Z,15.30
2017-11-13T23:17:26.745Z,15.40
2017-11-13T23:19:52.706Z,14.00
2017-11-13T23:22:18.668Z,13.87
2017-11-13T23:24:44.610Z,15.03
2017-11-13T23:27:10.585Z,14.90
2017-11-13T23:29:36.553Z,14.70
2017-11-13T23:32:02.487Z,15.03
2017-11-13T23:34:28.446Z,16.37
2017-11-13T23:36:54.401Z,16.90
2017-11-13T23:39:21.133Z,15.40
2017-11-13T23:41:47.094Z,13.87
2017-11-13T23:44:13.790Z,15.47
2017-11-13T23:46:39.744Z,14.80
2017-11-13T23:49:05.688Z,16.20
2017-11-13T23:51:31.745Z,14.60
2017-11-13T23:53:57.689Z,15.00
2017-11-13T23:56:24.413Z,16.43
2017-11-13T23:58:50.385Z,14.00
